sensor_id;sensor_type;location;lat;lon;timestamp;temperature;humidity
1011;DHT22;494;48.744;10.106;2022-07-29T00:00:05;19.40;64.80
1011;DHT22;494;48.744;10.106;2022-07-29T00:02:37;19.30;65.40
1011;DHT22;494;48.744;10.106;2022-07-29T00:05:07;19.30;66.20
1011;DHT22;494;48.744;10.106;2022-07-29T00:07:36;19.20;66.40
1011;DHT22;494;48.744;10.106;2022-07-29T00:10:05;19.20;66.70
1011;DHT22;494;48.744;10.106;2022-07-29T00:12:34;19.20;66.70
1011;DHT22;494;48.744;10.106;2022-07-29T00:15:04;19.30;66.30
1011;DHT22;494;48.744;10.106;2022-07-29T00:17:35;19.40;66.30
1011;DHT22;494;48.744;10.106;2022-07-29T00:20:05;19.50;66.00
1011;DHT22;494;48.744;10.106;2022-07-29T00:22:37;19.50;65.80
1011;DHT22;494;48.744;10.106;2022-07-29T00:25:06;19.60;65.70
1011;DHT22;494;48.744;10.106;2022-07-29T00:27:36;19.70;65.50
1011;DHT22;494;48.744;10.106;2022-07-29T00:30:06;19.70;65.20
1011;DHT22;494;48.744;10.106;2022-07-29T00:32:36;19.90;65.00
1011;DHT22;494;48.744;10.106;2022-07-29T00:35:06;19.90;63.80
1011;DHT22;494;48.744;10.106;2022-07-29T00:37:53;19.90;64.00
1011;DHT22;494;48.744;10.106;2022-07-29T00:40:21;20.00;63.60
1011;DHT22;494;48.744;10.106;2022-07-29T00:42:52;20.10;64.10
1011;DHT22;494;48.744;10.106;2022-07-29T00:45:21;20.10;64.00
1011;DHT22;494;48.744;10.106;2022-07-29T00:47:51;20.00;64.10
1011;DHT22;494;48.744;10.106;2022-07-29T00:50:20;20.00;64.30
1011;DHT22;494;48.744;10.106;2022-07-29T00:52:49;20.00;64.70
1011;DHT22;494;48.744;10.106;2022-07-29T00:55:19;20.00;64.70
1011;DHT22;494;48.744;10.106;2022-07-29T00:57:48;20.10;64.50
1011;DHT22;494;48.744;10.106;2022-07-29T01:00:20;20.10;64.10
1011;DHT22;494;48.744;10.106;2022-07-29T01:02:52;20.20;63.90
1011;DHT22;494;48.744;10.106;2022-07-29T01:05:22;20.20;63.80
1011;DHT22;494;48.744;10.106;2022-07-29T01:08:14;20.20;63.40
1011;DHT22;494;48.744;10.106;2022-07-29T01:10:44;20.10;63.70
1011;DHT22;494;48.744;10.106;2022-07-29T01:13:15;20.10;63.70
1011;DHT22;494;48.744;10.106;2022-07-29T01:15:46;20.00;63.70
1011;DHT22;494;48.744;10.106;2022-07-29T01:18:27;19.90;64.30
1011;DHT22;494;48.744;10.106;2022-07-29T01:21:27;19.90;64.50
1011;DHT22;494;48.744;10.106;2022-07-29T01:24:30;19.80;64.30
1011;DHT22;494;48.744;10.106;2022-07-29T01:27:25;19.70;64.70
1011;DHT22;494;48.744;10.106;2022-07-29T01:30:09;19.70;64.80
1011;DHT22;494;48.744;10.106;2022-07-29T01:32:43;19.70;64.10
1011;DHT22;494;48.744;10.106;2022-07-29T01:35:19;19.60;64.10
1011;DHT22;494;48.744;10.106;2022-07-29T01:37:57;19.60;64.20
1011;DHT22;494;48.744;10.106;2022-07-29T01:40:36;19.60;64.30
1011;DHT22;494;48.744;10.106;2022-07-29T01:43:12;19.70;64.50
1011;DHT22;494;48.744;10.106;2022-07-29T01:45:50;19.60;64.20
1011;DHT22;494;48.744;10.106;2022-07-29T01:48:42;19.70;64.30
1011;DHT22;494;48.744;10.106;2022-07-29T01:51:19;19.70;64.30
1011;DHT22;494;48.744;10.106;2022-07-29T01:53:53;19.70;64.10
1011;DHT22;494;48.744;10.106;2022-07-29T01:56:26;19.70;63.90
1011;DHT22;494;48.744;10.106;2022-07-29T01:59:01;19.70;63.80
1011;DHT22;494;48.744;10.106;2022-07-29T02:01:35;19.80;63.70
1011;DHT22;494;48.744;10.106;2022-07-29T02:04:07;19.80;63.30
1011;DHT22;494;48.744;10.106;2022-07-29T02:06:58;19.80;62.90
1011;DHT22;494;48.744;10.106;2022-07-29T02:09:33;19.70;63.30
1011;DHT22;494;48.744;10.106;2022-07-29T02:12:06;19.80;63.50
1011;DHT22;494;48.744;10.106;2022-07-29T02:14:39;19.70;63.60
1011;DHT22;494;48.744;10.106;2022-07-29T02:17:13;19.70;64.40
1011;DHT22;494;48.744;10.106;2022-07-29T02:19:47;19.70;63.60
1011;DHT22;494;48.744;10.106;2022-07-29T02:22:16;19.70;63.70
1011;DHT22;494;48.744;10.106;2022-07-29T02:24:48;19.70;63.40
1011;DHT22;494;48.744;10.106;2022-07-29T02:27:20;19.70;63.20
1011;DHT22;494;48.744;10.106;2022-07-29T02:29:52;19.70;63.60
1011;DHT22;494;48.744;10.106;2022-07-29T02:32:24;19.70;63.80
1011;DHT22;494;48.744;10.106;2022-07-29T02:34:55;19.70;64.00
1011;DHT22;494;48.744;10.106;2022-07-29T02:37:26;19.70;63.90
1011;DHT22;494;48.744;10.106;2022-07-29T02:39:57;19.70;63.40
1011;DHT22;494;48.744;10.106;2022-07-29T02:42:29;19.70;63.20
1011;DHT22;494;48.744;10.106;2022-07-29T02:44:59;19.70;62.90
1011;DHT22;494;48.744;10.106;2022-07-29T02:47:33;19.70;63.10
1011;DHT22;494;48.744;10.106;2022-07-29T02:50:11;19.70;63.00
1011;DHT22;494;48.744;10.106;2022-07-29T02:52:45;19.70;63.10
1011;DHT22;494;48.744;10.106;2022-07-29T02:55:26;19.70;63.00
1011;DHT22;494;48.744;10.106;2022-07-29T02:58:02;19.70;62.90
1011;DHT22;494;48.744;10.106;2022-07-29T03:00:37;19.70;62.80
1011;DHT22;494;48.744;10.106;2022-07-29T03:03:12;19.70;62.60
1011;DHT22;494;48.744;10.106;2022-07-29T03:05:43;19.70;62.50
1011;DHT22;494;48.744;10.106;2022-07-29T03:08:12;19.70;62.30
1011;DHT22;494;48.744;10.106;2022-07-29T03:10:44;19.70;62.30
1011;DHT22;494;48.744;10.106;2022-07-29T03:13:14;19.70;62.30
1011;DHT22;494;48.744;10.106;2022-07-29T03:15:45;19.70;62.20
1011;DHT22;494;48.744;10.106;2022-07-29T03:18:15;19.70;62.00
1011;DHT22;494;48.744;10.106;2022-07-29T03:20:44;19.60;61.90
1011;DHT22;494;48.744;10.106;2022-07-29T03:23:18;19.60;61.80
1011;DHT22;494;48.744;10.106;2022-07-29T03:25:47;19.60;61.80
1011;DHT22;494;48.744;10.106;2022-07-29T03:28:17;19.60;61.90
1011;DHT22;494;48.744;10.106;2022-07-29T03:30:48;19.60;61.70
1011;DHT22;494;48.744;10.106;2022-07-29T03:33:19;19.60;61.70
1011;DHT22;494;48.744;10.106;2022-07-29T03:35:47;19.50;61.50
1011;DHT22;494;48.744;10.106;2022-07-29T03:38:16;19.50;61.10
1011;DHT22;494;48.744;10.106;2022-07-29T03:40:49;19.40;61.00
1011;DHT22;494;48.744;10.106;2022-07-29T03:43:23;19.40;61.10
1011;DHT22;494;48.744;10.106;2022-07-29T03:45:55;19.40;61.10
1011;DHT22;494;48.744;10.106;2022-07-29T03:48:28;19.40;61.20
1011;DHT22;494;48.744;10.106;2022-07-29T03:51:00;19.40;61.30
1011;DHT22;494;48.744;10.106;2022-07-29T03:53:29;19.30;61.30
1011;DHT22;494;48.744;10.106;2022-07-29T03:56:02;19.30;61.10
1011;DHT22;494;48.744;10.106;2022-07-29T03:58:32;19.30;60.90
1011;DHT22;494;48.744;10.106;2022-07-29T04:01:02;19.30;60.90
1011;DHT22;494;48.744;10.106;2022-07-29T04:03:33;19.30;60.80
1011;DHT22;494;48.744;10.106;2022-07-29T04:06:04;19.30;60.50
1011;DHT22;494;48.744;10.106;2022-07-29T04:08:40;19.20;60.10
1011;DHT22;494;48.744;10.106;2022-07-29T04:11:09;19.20;60.40
1011;DHT22;494;48.744;10.106;2022-07-29T04:13:38;19.10;60.30
1011;DHT22;494;48.744;10.106;2022-07-29T04:16:06;19.00;60.50
1011;DHT22;494;48.744;10.106;2022-07-29T04:18:36;18.90;61.10
1011;DHT22;494;48.744;10.106;2022-07-29T04:21:05;18.90;61.30
1011;DHT22;494;48.744;10.106;2022-07-29T04:23:33;18.90;61.80
1011;DHT22;494;48.744;10.106;2022-07-29T04:26:19;18.90;61.80
1011;DHT22;494;48.744;10.106;2022-07-29T04:28:48;18.80;62.00
1011;DHT22;494;48.744;10.106;2022-07-29T04:31:16;18.70;62.50
1011;DHT22;494;48.744;10.106;2022-07-29T04:33:52;18.60;63.00
1011;DHT22;494;48.744;10.106;2022-07-29T04:36:21;18.40;63.70
1011;DHT22;494;48.744;10.106;2022-07-29T04:38:55;18.40;64.60
1011;DHT22;494;48.744;10.106;2022-07-29T04:41:24;18.50;65.00
1011;DHT22;494;48.744;10.106;2022-07-29T04:43:59;18.50;64.50
1011;DHT22;494;48.744;10.106;2022-07-29T04:46:35;18.60;63.80
1011;DHT22;494;48.744;10.106;2022-07-29T04:49:06;18.70;63.70
1011;DHT22;494;48.744;10.106;2022-07-29T04:51:35;18.80;63.60
1011;DHT22;494;48.744;10.106;2022-07-29T04:54:04;18.90;63.80
1011;DHT22;494;48.744;10.106;2022-07-29T04:56:33;18.70;63.80
1011;DHT22;494;48.744;10.106;2022-07-29T04:59:01;18.60;64.50
1011;DHT22;494;48.744;10.106;2022-07-29T05:01:30;18.70;63.70
1011;DHT22;494;48.744;10.106;2022-07-29T05:03:59;18.90;63.20
1011;DHT22;494;48.744;10.106;2022-07-29T05:06:29;18.90;62.70
1011;DHT22;494;48.744;10.106;2022-07-29T05:08:57;19.00;62.50
1011;DHT22;494;48.744;10.106;2022-07-29T05:11:25;19.10;62.30
1011;DHT22;494;48.744;10.106;2022-07-29T05:13:56;19.20;61.70
1011;DHT22;494;48.744;10.106;2022-07-29T05:16:24;19.30;61.80
1011;DHT22;494;48.744;10.106;2022-07-29T05:18:53;19.30;61.20
1011;DHT22;494;48.744;10.106;2022-07-29T05:21:22;19.50;60.80
1011;DHT22;494;48.744;10.106;2022-07-29T05:23:52;19.60;60.30
1011;DHT22;494;48.744;10.106;2022-07-29T05:26:20;19.80;59.80
1011;DHT22;494;48.744;10.106;2022-07-29T05:28:49;19.90;59.60
1011;DHT22;494;48.744;10.106;2022-07-29T05:31:17;19.90;59.40
1011;DHT22;494;48.744;10.106;2022-07-29T05:33:46;19.90;59.10
1011;DHT22;494;48.744;10.106;2022-07-29T05:36:14;20.00;59.20
1011;DHT22;494;48.744;10.106;2022-07-29T05:38:43;20.10;59.10
1011;DHT22;494;48.744;10.106;2022-07-29T05:41:16;20.10;58.60
1011;DHT22;494;48.744;10.106;2022-07-29T05:43:44;20.20;58.30
1011;DHT22;494;48.744;10.106;2022-07-29T05:46:13;20.20;58.30
1011;DHT22;494;48.744;10.106;2022-07-29T05:48:42;20.20;58.10
1011;DHT22;494;48.744;10.106;2022-07-29T05:51:10;20.10;57.90
1011;DHT22;494;48.744;10.106;2022-07-29T05:53:39;20.20;57.90
1011;DHT22;494;48.744;10.106;2022-07-29T05:56:07;20.30;57.50
1011;DHT22;494;48.744;10.106;2022-07-29T05:58:37;20.40;57.40
1011;DHT22;494;48.744;10.106;2022-07-29T06:01:05;20.40;57.00
1011;DHT22;494;48.744;10.106;2022-07-29T06:03:35;20.50;57.00
1011;DHT22;494;48.744;10.106;2022-07-29T06:06:04;20.60;56.80
1011;DHT22;494;48.744;10.106;2022-07-29T06:08:34;20.60;56.80
1011;DHT22;494;48.744;10.106;2022-07-29T06:11:03;20.70;56.80
1011;DHT22;494;48.744;10.106;2022-07-29T06:13:32;20.80;56.30
1011;DHT22;494;48.744;10.106;2022-07-29T06:16:03;21.00;56.00
1011;DHT22;494;48.744;10.106;2022-07-29T06:18:32;21.00;56.30
1011;DHT22;494;48.744;10.106;2022-07-29T06:21:00;21.20;56.30
1011;DHT22;494;48.744;10.106;2022-07-29T06:23:29;21.30;55.70
1011;DHT22;494;48.744;10.106;2022-07-29T06:25:58;21.50;54.30
1011;DHT22;494;48.744;10.106;2022-07-29T06:28:26;21.60;54.30
1011;DHT22;494;48.744;10.106;2022-07-29T06:30:55;21.70;54.20
1011;DHT22;494;48.744;10.106;2022-07-29T06:33:25;21.80;53.20
1011;DHT22;494;48.744;10.106;2022-07-29T06:35:54;21.90;53.10
1011;DHT22;494;48.744;10.106;2022-07-29T06:38:22;22.10;52.30
1011;DHT22;494;48.744;10.106;2022-07-29T06:41:00;22.30;52.60
1011;DHT22;494;48.744;10.106;2022-07-29T06:43:31;22.40;51.50
1011;DHT22;494;48.744;10.106;2022-07-29T06:46:19;22.50;51.20
1011;DHT22;494;48.744;10.106;2022-07-29T06:48:50;22.40;50.80
1011;DHT22;494;48.744;10.106;2022-07-29T06:51:20;22.40;51.40
1011;DHT22;494;48.744;10.106;2022-07-29T06:53:51;22.30;51.70
1011;DHT22;494;48.744;10.106;2022-07-29T06:56:29;22.30;51.70
1011;DHT22;494;48.744;10.106;2022-07-29T06:59:06;22.20;52.30
1011;DHT22;494;48.744;10.106;2022-07-29T07:01:36;22.20;52.50
1011;DHT22;494;48.744;10.106;2022-07-29T07:04:07;22.30;51.20
1011;DHT22;494;48.744;10.106;2022-07-29T07:06:36;22.40;50.50
1011;DHT22;494;48.744;10.106;2022-07-29T07:09:05;22.30;50.30
1011;DHT22;494;48.744;10.106;2022-07-29T07:11:34;22.20;50.50
1011;DHT22;494;48.744;10.106;2022-07-29T07:14:03;22.10;50.30
1011;DHT22;494;48.744;10.106;2022-07-29T07:16:32;22.10;51.40
1011;DHT22;494;48.744;10.106;2022-07-29T07:19:01;22.10;50.90
1011;DHT22;494;48.744;10.106;2022-07-29T07:21:32;22.20;50.90
1011;DHT22;494;48.744;10.106;2022-07-29T07:24:01;22.20;50.40
1011;DHT22;494;48.744;10.106;2022-07-29T07:26:30;22.30;51.20
1011;DHT22;494;48.744;10.106;2022-07-29T07:28:59;22.50;50.80
1011;DHT22;494;48.744;10.106;2022-07-29T07:31:28;22.70;48.90
1011;DHT22;494;48.744;10.106;2022-07-29T07:33:57;22.90;48.80
1011;DHT22;494;48.744;10.106;2022-07-29T07:36:27;23.00;47.20
1011;DHT22;494;48.744;10.106;2022-07-29T07:38:57;23.10;47.70
1011;DHT22;494;48.744;10.106;2022-07-29T07:41:26;23.30;46.70
1011;DHT22;494;48.744;10.106;2022-07-29T07:43:58;23.50;46.90
1011;DHT22;494;48.744;10.106;2022-07-29T07:46:28;23.80;45.30
1011;DHT22;494;48.744;10.106;2022-07-29T07:48:57;24.00;45.30
1011;DHT22;494;48.744;10.106;2022-07-29T07:51:26;24.10;44.50
1011;DHT22;494;48.744;10.106;2022-07-29T07:53:54;24.20;43.60
1011;DHT22;494;48.744;10.106;2022-07-29T07:56:25;24.40;44.20
1011;DHT22;494;48.744;10.106;2022-07-29T07:59:00;24.70;43.40
1011;DHT22;494;48.744;10.106;2022-07-29T08:01:29;24.90;42.20
1011;DHT22;494;48.744;10.106;2022-07-29T08:04:17;25.00;41.70
1011;DHT22;494;48.744;10.106;2022-07-29T08:06:53;25.30;40.40
1011;DHT22;494;48.744;10.106;2022-07-29T08:09:25;25.70;40.10
1011;DHT22;494;48.744;10.106;2022-07-29T08:11:57;26.10;38.20
1011;DHT22;494;48.744;10.106;2022-07-29T08:14:26;26.50;36.50
1011;DHT22;494;48.744;10.106;2022-07-29T08:16:55;26.60;35.90
1011;DHT22;494;48.744;10.106;2022-07-29T08:19:24;26.80;35.50
1011;DHT22;494;48.744;10.106;2022-07-29T08:21:52;26.90;35.10
1011;DHT22;494;48.744;10.106;2022-07-29T08:24:23;27.00;35.00
1011;DHT22;494;48.744;10.106;2022-07-29T08:27:10;27.20;35.10
1011;DHT22;494;48.744;10.106;2022-07-29T08:29:58;27.20;33.40
1011;DHT22;494;48.744;10.106;2022-07-29T08:32:27;27.40;32.90
1011;DHT22;494;48.744;10.106;2022-07-29T08:35:16;27.60;32.90
1011;DHT22;494;48.744;10.106;2022-07-29T08:37:45;27.80;32.00
1011;DHT22;494;48.744;10.106;2022-07-29T08:40:15;27.90;31.70
1011;DHT22;494;48.744;10.106;2022-07-29T08:42:44;27.90;30.80
1011;DHT22;494;48.744;10.106;2022-07-29T08:45:23;27.80;31.10
1011;DHT22;494;48.744;10.106;2022-07-29T08:47:54;27.80;31.90
1011;DHT22;494;48.744;10.106;2022-07-29T08:50:23;27.80;31.80
1011;DHT22;494;48.744;10.106;2022-07-29T08:52:52;28.00;31.80
1011;DHT22;494;48.744;10.106;2022-07-29T08:55:28;28.10;31.60
1011;DHT22;494;48.744;10.106;2022-07-29T08:57:59;28.20;31.80
1011;DHT22;494;48.744;10.106;2022-07-29T09:00:30;28.30;30.40
1011;DHT22;494;48.744;10.106;2022-07-29T09:03:00;28.50;30.60
1011;DHT22;494;48.744;10.106;2022-07-29T09:05:30;28.80;30.10
1011;DHT22;494;48.744;10.106;2022-07-29T09:08:06;28.90;28.60
1011;DHT22;494;48.744;10.106;2022-07-29T09:10:37;29.10;29.50
1011;DHT22;494;48.744;10.106;2022-07-29T09:13:06;29.20;27.70
1011;DHT22;494;48.744;10.106;2022-07-29T09:15:35;29.40;28.40
1011;DHT22;494;48.744;10.106;2022-07-29T09:18:04;29.50;27.00
1011;DHT22;494;48.744;10.106;2022-07-29T09:20:32;29.60;27.50
1011;DHT22;494;48.744;10.106;2022-07-29T09:23:15;29.70;27.70
1011;DHT22;494;48.744;10.106;2022-07-29T09:25:51;29.90;26.60
1011;DHT22;494;48.744;10.106;2022-07-29T09:28:20;30.10;26.60
1011;DHT22;494;48.744;10.106;2022-07-29T09:30:52;30.20;25.70
1011;DHT22;494;48.744;10.106;2022-07-29T09:33:22;30.20;26.30
1011;DHT22;494;48.744;10.106;2022-07-29T09:36:04;30.40;25.00
1011;DHT22;494;48.744;10.106;2022-07-29T09:38:34;30.50;25.00
1011;DHT22;494;48.744;10.106;2022-07-29T09:41:06;30.60;24.20
1011;DHT22;494;48.744;10.106;2022-07-29T09:43:36;30.90;24.40
1011;DHT22;494;48.744;10.106;2022-07-29T09:46:11;31.00;24.00
1011;DHT22;494;48.744;10.106;2022-07-29T09:48:41;31.30;23.80
1011;DHT22;494;48.744;10.106;2022-07-29T09:51:17;31.40;22.90
1011;DHT22;494;48.744;10.106;2022-07-29T09:53:52;31.40;22.80
1011;DHT22;494;48.744;10.106;2022-07-29T09:56:38;31.50;21.90
1011;DHT22;494;48.744;10.106;2022-07-29T09:59:07;31.80;21.80
1011;DHT22;494;48.744;10.106;2022-07-29T10:01:38;32.10;21.10
1011;DHT22;494;48.744;10.106;2022-07-29T10:04:06;32.10;20.80
1011;DHT22;494;48.744;10.106;2022-07-29T10:06:35;32.10;20.60
1011;DHT22;494;48.744;10.106;2022-07-29T10:09:30;31.70;21.40
1011;DHT22;494;48.744;10.106;2022-07-29T10:12:09;31.60;22.30
1011;DHT22;494;48.744;10.106;2022-07-29T10:14:41;31.80;22.70
1011;DHT22;494;48.744;10.106;2022-07-29T10:17:10;32.00;20.50
1011;DHT22;494;48.744;10.106;2022-07-29T10:19:39;32.00;21.00
1011;DHT22;494;48.744;10.106;2022-07-29T10:22:11;32.10;20.40
1011;DHT22;494;48.744;10.106;2022-07-29T10:24:40;32.10;21.20
1011;DHT22;494;48.744;10.106;2022-07-29T10:27:10;32.30;20.40
1011;DHT22;494;48.744;10.106;2022-07-29T10:29:39;32.40;21.00
1011;DHT22;494;48.744;10.106;2022-07-29T10:32:20;32.80;22.00
1011;DHT22;494;48.744;10.106;2022-07-29T10:35:21;33.10;19.10
1011;DHT22;494;48.744;10.106;2022-07-29T10:38:32;33.60;19.00
1011;DHT22;494;48.744;10.106;2022-07-29T10:41:43;33.90;18.80
1011;DHT22;494;48.744;10.106;2022-07-29T10:44:24;34.20;17.80
1011;DHT22;494;48.744;10.106;2022-07-29T10:46:54;34.00;18.50
1011;DHT22;494;48.744;10.106;2022-07-29T10:49:25;33.70;18.20
1011;DHT22;494;48.744;10.106;2022-07-29T10:52:01;33.30;18.30
1011;DHT22;494;48.744;10.106;2022-07-29T10:54:47;33.00;19.40
1011;DHT22;494;48.744;10.106;2022-07-29T10:57:20;32.50;19.30
1011;DHT22;494;48.744;10.106;2022-07-29T11:00:34;32.30;19.50
1011;DHT22;494;48.744;10.106;2022-07-29T11:03:05;32.10;19.00
1011;DHT22;494;48.744;10.106;2022-07-29T11:05:53;31.80;18.20
1011;DHT22;494;48.744;10.106;2022-07-29T11:08:26;31.50;16.70
1011;DHT22;494;48.744;10.106;2022-07-29T11:14:17;31.70;13.50
1011;DHT22;494;48.744;10.106;2022-07-29T11:17:02;31.80;14.50
1011;DHT22;494;48.744;10.106;2022-07-29T11:19:52;31.60;18.70
1011;DHT22;494;48.744;10.106;2022-07-29T11:22:59;31.50;20.20
1011;DHT22;494;48.744;10.106;2022-07-29T11:25:29;31.20;22.90
1011;DHT22;494;48.744;10.106;2022-07-29T11:28:20;31.10;23.70
1011;DHT22;494;48.744;10.106;2022-07-29T11:30:52;30.80;22.50
1011;DHT22;494;48.744;10.106;2022-07-29T11:33:29;30.50;22.50
1011;DHT22;494;48.744;10.106;2022-07-29T11:36:18;30.40;19.20
1011;DHT22;494;48.744;10.106;2022-07-29T11:39:25;30.60;19.00
1011;DHT22;494;48.744;10.106;2022-07-29T11:45:12;31.00;16.80
1011;DHT22;494;48.744;10.106;2022-07-29T11:48:05;31.00;16.40
1011;DHT22;494;48.744;10.106;2022-07-29T11:50:56;31.30;16.20
1011;DHT22;494;48.744;10.106;2022-07-29T11:53:25;31.40;15.60
1011;DHT22;494;48.744;10.106;2022-07-29T11:55:59;31.20;15.90
1011;DHT22;494;48.744;10.106;2022-07-29T11:58:30;31.00;16.00
1011;DHT22;494;48.744;10.106;2022-07-29T12:00:59;30.80;15.40
1011;DHT22;494;48.744;10.106;2022-07-29T12:03:31;30.60;15.90
1011;DHT22;494;48.744;10.106;2022-07-29T12:06:11;30.20;16.40
1011;DHT22;494;48.744;10.106;2022-07-29T12:08:46;29.80;16.30
1011;DHT22;494;48.744;10.106;2022-07-29T12:11:16;29.70;16.90
1011;DHT22;494;48.744;10.106;2022-07-29T12:13:47;29.60;16.90
1011;DHT22;494;48.744;10.106;2022-07-29T12:16:16;29.40;16.30
1011;DHT22;494;48.744;10.106;2022-07-29T12:18:59;29.20;16.20
1011;DHT22;494;48.744;10.106;2022-07-29T12:21:43;28.50;17.20
1011;DHT22;494;48.744;10.106;2022-07-29T12:24:22;27.70;19.00
1011;DHT22;494;48.744;10.106;2022-07-29T12:26:54;27.30;21.00
1011;DHT22;494;48.744;10.106;2022-07-29T12:29:24;27.00;21.60
1011;DHT22;494;48.744;10.106;2022-07-29T12:32:02;26.70;22.30
1011;DHT22;494;48.744;10.106;2022-07-29T12:34:45;26.40;23.10
1011;DHT22;494;48.744;10.106;2022-07-29T12:37:16;26.30;25.10
1011;DHT22;494;48.744;10.106;2022-07-29T12:39:46;26.10;28.50
1011;DHT22;494;48.744;10.106;2022-07-29T12:42:15;26.00;30.80
1011;DHT22;494;48.744;10.106;2022-07-29T12:44:46;25.70;30.90
1011;DHT22;494;48.744;10.106;2022-07-29T12:47:16;25.50;32.60
1011;DHT22;494;48.744;10.106;2022-07-29T12:49:46;25.30;32.70
1011;DHT22;494;48.744;10.106;2022-07-29T12:52:26;25.10;31.70
1011;DHT22;494;48.744;10.106;2022-07-29T12:54:56;24.80;32.30
1011;DHT22;494;48.744;10.106;2022-07-29T12:57:25;24.60;33.20
1011;DHT22;494;48.744;10.106;2022-07-29T13:00:03;24.50;34.50
1011;DHT22;494;48.744;10.106;2022-07-29T13:02:38;24.60;35.70
1011;DHT22;494;48.744;10.106;2022-07-29T13:05:09;24.60;35.00
1011;DHT22;494;48.744;10.106;2022-07-29T13:07:40;24.50;35.60
1011;DHT22;494;48.744;10.106;2022-07-29T13:10:23;24.40;35.20
1011;DHT22;494;48.744;10.106;2022-07-29T13:13:03;24.50;36.40
1011;DHT22;494;48.744;10.106;2022-07-29T13:15:33;24.60;36.10
1011;DHT22;494;48.744;10.106;2022-07-29T13:18:04;24.60;36.80
1011;DHT22;494;48.744;10.106;2022-07-29T13:20:33;24.60;37.50
1011;DHT22;494;48.744;10.106;2022-07-29T13:23:03;24.60;38.00
1011;DHT22;494;48.744;10.106;2022-07-29T13:25:32;24.50;39.70
1011;DHT22;494;48.744;10.106;2022-07-29T13:28:01;24.30;40.10
1011;DHT22;494;48.744;10.106;2022-07-29T13:30:29;24.10;41.20
1011;DHT22;494;48.744;10.106;2022-07-29T13:32:58;24.00;41.90
1011;DHT22;494;48.744;10.106;2022-07-29T13:35:27;24.00;42.30
1011;DHT22;494;48.744;10.106;2022-07-29T13:37:56;23.90;43.70
1011;DHT22;494;48.744;10.106;2022-07-29T13:40:26;24.00;42.30
1011;DHT22;494;48.744;10.106;2022-07-29T13:42:56;23.90;42.20
1011;DHT22;494;48.744;10.106;2022-07-29T13:45:24;23.80;41.40
